»·PEaware :: LBQ783 KHLN-KBTM

LBQ783 :: KHLN-KBTM

FLIGHT INFORMATION

Flight Status: Arrived
Operator: Unknown
More flights by this operator :: More flights under this callsign
Pilot: Walter H. (552)
Aircraft: BEECH AIRCRAFT SUPER KING AIR 350
(B350)
More flights by this aircraft type
Origin: KHLN Helena Regl
United States
Destination: KBTM Mooney
United States
More flights between these airports :: More routes between these airports
Route: +HLN4 HLN V113 CPN
File this flight plan on PilotEdge
Remarks:
Altitude:
(Current/Filed)
14,000ft
Speed:
(Current/Filed)
250kts
Departed: 11-Jul-20 09:02 PM
Arrived: 11-Jul-20 09:29 PM
Distance/Time
Traveled:
45nm/0:27
Distance/Time
To Go:
Arrived

Flight Plot

Page will automatically refresh every two minutes.

Flight plan parsing failed; only flown route is shown


Map Options




Map Legend


Flown Route
Filed Route
Departure Airport
Arrival Airport
Navaid (VOR, NDB)
Fix

Horizontal Profiles

Position Reports

Time Latitude Longitude Heading Altitude Ground
Speed
11-Jul-20 20:41 46.602871 -111.994937 90 3885ft 0kts
11-Jul-20 20:42 46.602871 -111.994937 90 3885ft 0kts
11-Jul-20 20:43 46.602871 -111.994937 90 3885ft 0kts
11-Jul-20 20:44 46.602871 -111.994937 90 3885ft 0kts
11-Jul-20 20:45 46.602871 -111.994937 90 3885ft 0kts
11-Jul-20 20:46 46.602871 -111.994937 90 3885ft 0kts
11-Jul-20 20:47 46.602871 -111.994937 90 3885ft 0kts
11-Jul-20 20:48 46.602871 -111.994937 90 3885ft 0kts
11-Jul-20 20:49 46.602947 -111.994755 26 3884ft 11kts
11-Jul-20 20:50 46.603081 -111.995071 270 3884ft 0kts
11-Jul-20 20:51 46.603923 -111.996654 345 3884ft 17kts
11-Jul-20 20:52 46.607021 -111.997813 345 3870ft 10kts
11-Jul-20 20:53 46.607524 -111.997976 349 3867ft 0kts
11-Jul-20 20:54 46.607524 -111.997976 349 3867ft 0kts
11-Jul-20 20:55 46.607524 -111.997976 349 3867ft 0kts
11-Jul-20 20:57 46.607524 -111.997976 349 3867ft 0kts
11-Jul-20 20:58 46.607524 -111.997976 349 3867ft 0kts
11-Jul-20 20:59 46.607524 -111.997976 349 3867ft 0kts
11-Jul-20 21:00 46.607524 -111.997976 349 3867ft 0kts
11-Jul-20 21:01 46.607524 -111.997976 349 3867ft 0kts
11-Jul-20 21:02 46.605569 -111.978188 101 3987ft 130kts
11-Jul-20 21:03 46.627079 -111.947265 344 5266ft 173kts
11-Jul-20 21:04 46.672449 -111.964932 356 6884ft 177kts
11-Jul-20 21:05 46.722236 -111.971566 340 8325ft 183kts
11-Jul-20 21:06 46.716647 -112.017258 168 9743ft 166kts
11-Jul-20 21:07 46.679126 -111.977117 144 11039ft 171kts
11-Jul-20 21:08 46.633660 -111.962243 168 12240ft 170kts
11-Jul-20 21:09 46.587435 -111.951571 206 13303ft 174kts
11-Jul-20 21:10 46.556428 -112.008067 231 14020ft 197kts
11-Jul-20 21:11 46.518012 -112.064236 216 14988ft 186kts
11-Jul-20 21:12 46.486207 -112.118655 225 16016ft 183kts
11-Jul-20 21:13 46.446962 -112.177976 223 16010ft 220kts
11-Jul-20 21:14 46.401326 -112.243374 223 16008ft 242kts
11-Jul-20 21:14 46.359905 -112.301797 223 16024ft 256kts
11-Jul-20 21:16 46.298261 -112.384741 222 16080ft 263kts
11-Jul-20 21:17 46.245001 -112.457732 222 16112ft 266kts
11-Jul-20 21:17 46.200396 -112.518863 222 16109ft 261kts
11-Jul-20 21:19 46.143938 -112.596051 222 16073ft 207kts
11-Jul-20 21:19 46.118000 -112.646577 268 15146ft 191kts
11-Jul-20 21:20 46.145418 -112.709775 277 13840ft 180kts
11-Jul-20 21:21 46.139670 -112.778052 255 12532ft 171kts
11-Jul-20 21:22 46.114521 -112.833921 197 11242ft 178kts
11-Jul-20 21:23 46.074960 -112.790959 138 9990ft 197kts
11-Jul-20 21:24 46.033851 -112.737046 122 8686ft 206kts
11-Jul-20 21:25 46.007302 -112.665126 114 7735ft 193kts
11-Jul-20 21:26 45.986338 -112.599436 113 7290ft 162kts
11-Jul-20 21:27 45.971317 -112.538664 106 6698ft 151kts
11-Jul-20 21:28 45.954601 -112.497881 132 5526ft 10kts
11-Jul-20 21:29 45.955486 -112.501931 226 5529ft 4kts
11-Jul-20 21:30 45.955470 -112.501952 222 5529ft 0kts
11-Jul-20 21:31 45.955470 -112.501952 222 5529ft 0kts
11-Jul-20 21:32 45.955470 -112.501952 222 5529ft 0kts
11-Jul-20 21:33 45.955470 -112.501952 222 5529ft 0kts
11-Jul-20 21:34 45.955470 -112.501952 222 5529ft 0kts
11-Jul-20 21:35 45.955470 -112.501952 222 5529ft 0kts
11-Jul-20 21:36 45.955470 -112.501952 222 5529ft 0kts
11-Jul-20 21:37 45.955470 -112.501952 222 5529ft 0kts
11-Jul-20 21:38 45.955470 -112.501952 222 5529ft 0kts
11-Jul-20 21:39 45.955470 -112.501952 222 5529ft 0kts
11-Jul-20 21:40 45.955470 -112.501952 222 5529ft 0kts
11-Jul-20 21:41 45.955470 -112.501952 222 5529ft 0kts
11-Jul-20 21:42 45.955470 -112.501952 222 5529ft 0kts

Navigation Log

Ident Type
Flight plan parsing failed, navigation log unavailable